Time;durP1;ratioP1;P1;durP2;ratioP2;P2;SDS_P1;SDS_P2;PMS_P1;PMS_P2;Temp;Humidity;BMP_temperature;BMP_pressure;BME280_temperature;BME280_humidity;BME280_pressure;Samples;Min_cycle;Max_cycle;Signal;HPM_P1;HPM_P2
2021/07/03 00:00:36;;;;;;;;;14.75;13.00;;;;;24.23;49.01;101049.47;5038511;28;60256;-58
2021/07/03 00:03:02;;;;;;;;;12.75;12.75;;;;;24.18;49.47;101049.81;5039387;28;45343;-59
2021/07/03 00:05:27;;;;;;;;;13.25;13.25;;;;;24.14;49.10;101048.38;5035492;28;50500;-59
2021/07/03 00:07:53;;;;;;;;;15.00;12.00;;;;;24.12;49.58;101052.13;5042941;28;45520;-59
2021/07/03 00:10:19;;;;;;;;;15.50;13.75;;;;;24.09;49.56;101055.03;5041485;28;64128;-59
2021/07/03 00:12:44;;;;;;;;;16.50;13.75;;;;;24.07;49.75;101056.97;5048862;28;45300;-59
2021/07/03 00:15:14;;;;;;;;;13.50;13.50;;;;;24.05;49.89;101051.75;5050591;28;45459;-64
2021/07/03 00:17:40;;;;;;;;;19.25;15.50;;;;;24.02;49.65;101046.66;5030898;28;45202;-64
2021/07/03 00:20:07;;;;;;;;;13.25;12.75;;;;;23.96;49.84;101040.03;5041119;28;56665;-64
2021/07/03 00:22:32;;;;;;;;;15.00;13.75;;;;;23.98;49.78;101047.88;5049669;28;45619;-64
2021/07/03 00:24:58;;;;;;;;;16.00;14.25;;;;;23.95;50.22;101042.81;5048186;28;57195;-64
2021/07/03 00:27:23;;;;;;;;;19.25;16.00;;;;;23.91;49.80;101050.19;5049296;28;57308;-64
2021/07/03 00:29:48;;;;;;;;;13.00;13.00;;;;;23.87;50.15;101040.78;5048968;28;45439;-64
2021/07/03 00:32:14;;;;;;;;;15.25;15.25;;;;;23.81;50.43;101035.94;5041914;28;63709;-64
2021/07/03 00:34:39;;;;;;;;;16.50;14.25;;;;;23.79;50.60;101032.56;5041867;28;61047;-64
2021/07/03 00:37:05;;;;;;;;;17.25;16.25;;;;;23.76;50.64;101027.50;5042519;28;45442;-64
2021/07/03 00:39:30;;;;;;;;;13.00;13.00;;;;;23.74;50.79;101032.06;5045288;28;45919;-64
2021/07/03 00:41:55;;;;;;;;;15.50;15.25;;;;;23.71;50.66;101029.66;5044349;28;45355;-64
2021/07/03 00:44:28;;;;;;;;;20.50;15.25;;;;;23.69;50.62;101036.91;5075408;28;65276;-60
2021/07/03 00:46:54;;;;;;;;;15.25;15.25;;;;;23.66;50.93;101031.84;5074789;28;45303;-59
2021/07/03 00:49:22;;;;;;;;;16.00;14.25;;;;;23.60;50.86;101037.59;5047065;28;46284;-59
2021/07/03 00:51:47;;;;;;;;;16.75;14.75;;;;;23.58;51.06;101044.84;5024848;28;45252;-59
2021/07/03 00:54:12;;;;;;;;;16.00;15.25;;;;;23.55;51.04;101043.25;5043727;28;45758;-60
2021/07/03 00:56:38;;;;;;;;;17.25;12.50;;;;;23.53;51.06;101039.88;5052918;28;68126;-60
2021/07/03 00:59:03;;;;;;;;;10.50;10.50;;;;;23.50;50.74;101040.09;5044707;28;61136;-59
2021/07/03 01:01:28;;;;;;;;;21.50;15.50;;;;;23.49;51.33;101037.56;5073514;28;62711;-59
2021/07/03 01:03:54;;;;;;;;;14.75;10.75;;;;;23.46;51.53;101037.81;5046125;28;62826;-60
2021/07/03 01:06:19;;;;;;;;;15.75;13.50;;;;;23.40;51.40;101030.31;5041534;28;59898;-59
2021/07/03 01:08:45;;;;;;;;;16.75;14.75;;;;;23.40;51.39;101027.66;5041025;28;62249;-59
2021/07/03 01:11:10;;;;;;;;;16.50;14.75;;;;;23.38;51.45;101033.91;5049354;28;57265;-59
2021/07/03 01:13:35;;;;;;;;;13.75;11.75;;;;;23.33;51.41;101025.47;5049428;28;45359;-59
2021/07/03 01:16:01;;;;;;;;;17.75;16.00;;;;;23.30;51.48;101023.06;5041381;28;45323;-59
2021/07/03 01:18:26;;;;;;;;;16.25;15.50;;;;;23.27;51.72;101020.66;5054728;28;46461;-59
2021/07/03 01:20:53;;;;;;;;;14.75;11.25;;;;;23.25;51.75;101016.44;5048570;28;45311;-60
2021/07/03 01:23:20;;;;;;;;;16.25;15.00;;;;;23.21;51.73;101010.47;5053849;28;45422;-60
2021/07/03 01:25:46;;;;;;;;;15.75;11.50;;;;;23.18;51.73;101008.06;5043530;28;45297;-60
2021/07/03 01:28:11;;;;;;;;;12.25;10.25;;;;;23.16;51.99;101009.16;5061510;28;46343;-60
2021/07/03 01:30:36;;;;;;;;;15.75;14.25;;;;;23.14;52.30;101011.06;5041509;28;55854;-60
2021/07/03 01:33:02;;;;;;;;;14.00;12.00;;;;;23.12;52.07;101000.59;5054479;28;56193;-59
2021/07/03 01:35:28;;;;;;;;;15.50;14.00;;;;;23.11;52.47;101003.34;5041788;28;45302;-59
2021/07/03 01:37:54;;;;;;;;;15.50;12.00;;;;;23.09;52.32;101000.81;5054588;28;46458;-60
2021/07/03 01:40:19;;;;;;;;;15.00;12.00;;;;;23.08;52.32;101004.44;5051370;28;45315;-60
2021/07/03 01:42:44;;;;;;;;;13.50;13.50;;;;;23.08;52.47;101003.59;5030133;28;45303;-60
2021/07/03 01:45:10;;;;;;;;;17.00;14.00;;;;;23.10;52.75;101001.66;5052867;28;59885;-61
2021/07/03 01:47:45;;;;;;;;;15.25;14.75;;;;;23.13;52.32;101001.44;5053968;28;59615;-58
2021/07/03 01:50:11;;;;;;;;;18.50;14.25;;;;;23.15;52.34;100996.84;5050242;28;45695;-59
2021/07/03 01:52:37;;;;;;;;;16.25;14.50;;;;;23.12;52.52;101000.59;5047843;28;45345;-59
2021/07/03 01:55:06;;;;;;;;;17.75;16.75;;;;;23.12;52.46;101002.41;5051880;28;45452;-67
2021/07/03 01:57:32;;;;;;;;;19.00;17.50;;;;;23.12;52.45;100997.09;5054270;28;46218;-64
2021/07/03 01:59:58;;;;;;;;;13.75;13.00;;;;;23.12;52.59;100994.44;5023545;28;45599;-59
2021/07/03 02:02:23;;;;;;;;;19.00;18.00;;;;;23.13;52.50;100996.13;5040745;28;51540;-60
2021/07/03 02:04:49;;;;;;;;;17.00;16.00;;;;;23.12;52.52;100997.09;5040411;28;65266;-61
2021/07/03 02:07:14;;;;;;;;;14.00;13.50;;;;;23.12;52.42;100992.63;5040865;28;46293;-56
2021/07/03 02:09:39;;;;;;;;;15.75;13.00;;;;;23.11;52.45;100996.25;5050288;28;63595;-56
2021/07/03 02:12:05;;;;;;;;;16.00;16.00;;;;;23.12;52.50;100989.13;5044434;28;60671;-57
2021/07/03 02:14:30;;;;;;;;;13.50;13.50;;;;;23.11;52.61;100993.59;5054040;28;45350;-57
2021/07/03 02:16:56;;;;;;;;;16.75;14.25;;;;;23.11;52.90;100993.59;5039714;28;71534;-57
2021/07/03 02:19:21;;;;;;;;;17.25;15.00;;;;;23.05;52.65;100991.41;5047488;28;59658;-55
2021/07/03 02:21:47;;;;;;;;;14.25;11.50;;;;;23.01;52.39;101003.19;5046325;28;61856;-58
2021/07/03 02:24:12;;;;;;;;;15.00;12.50;;;;;22.98;52.86;100990.19;5013158;28;45404;-58
2021/07/03 02:26:37;;;;;;;;;11.25;11.25;;;;;22.93;52.87;100995.81;5045969;28;63406;-60
2021/07/03 02:29:03;;;;;;;;;14.50;12.00;;;;;22.92;52.63;100988.84;5054737;28;45748;-58
2021/07/03 02:31:28;;;;;;;;;17.50;15.50;;;;;22.88;53.04;100983.88;5065881;28;45307;-57
2021/07/03 02:33:54;;;;;;;;;16.25;13.00;;;;;22.88;52.92;100989.19;5030225;28;45347;-60
2021/07/03 02:36:22;;;;;;;;;13.75;12.75;;;;;22.85;52.95;100987.63;5059845;28;66596;-59
2021/07/03 02:38:47;;;;;;;;;15.50;13.50;;;;;22.82;53.09;100989.63;5054299;28;45548;-58
2021/07/03 02:41:13;;;;;;;;;17.75;15.00;;;;;22.78;53.30;100984.53;5053987;28;45675;-60
2021/07/03 02:43:38;;;;;;;;;15.50;14.50;;;;;22.77;53.62;100980.19;5040349;28;45147;-59
2021/07/03 02:46:04;;;;;;;;;20.00;16.25;;;;;22.75;53.42;100990.06;5039553;28;68851;-60
2021/07/03 02:48:29;;;;;;;;;14.00;13.00;;;;;22.75;53.66;100983.91;5048700;28;45324;-60
2021/07/03 02:50:54;;;;;;;;;17.25;13.75;;;;;22.75;53.57;100982.13;5040191;28;48199;-60
2021/07/03 02:53:20;;;;;;;;;17.25;14.00;;;;;22.76;53.65;100983.81;5051620;28;63646;-60
2021/07/03 02:55:45;;;;;;;;;21.25;15.50;;;;;22.76;53.66;100997.06;5039179;28;69787;-59
2021/07/03 02:58:10;;;;;;;;;16.00;13.50;;;;;22.78;53.86;100987.19;5055895;28;61447;-59
2021/07/03 03:00:36;;;;;;;;;16.50;15.50;;;;;22.80;53.51;100986.22;5063851;28;60041;-60
2021/07/03 03:03:01;;;;;;;;;16.00;14.75;;;;;22.79;53.58;100985.38;5039241;28;45585;-62
2021/07/03 03:05:27;;;;;;;;;19.75;17.50;;;;;22.78;53.68;100978.38;5041114;28;46654;-61
2021/07/03 03:07:52;;;;;;;;;15.25;13.25;;;;;22.77;53.58;100980.19;5052273;28;45273;-60
2021/07/03 03:10:18;;;;;;;;;20.00;17.00;;;;;22.77;53.59;100977.53;5040276;28;52598;-61
2021/07/03 03:12:43;;;;;;;;;17.75;13.25;;;;;22.76;53.51;100975.84;5051220;28;45555;-59
2021/07/03 03:15:09;;;;;;;;;16.75;15.00;;;;;22.76;53.69;100972.38;5052342;28;46368;-60
2021/07/03 03:17:35;;;;;;;;;19.75;16.75;;;;;22.77;53.89;100974.91;5055069;28;45575;-58
2021/07/03 03:20:01;;;;;;;;;14.50;12.25;;;;;22.76;53.71;100973.19;5047689;28;45472;-59
2021/07/03 03:22:26;;;;;;;;;15.00;14.50;;;;;22.75;53.81;100976.81;5035414;28;45450;-59
2021/07/03 03:24:51;;;;;;;;;18.50;15.00;;;;;22.75;53.83;100975.97;5051539;28;63070;-60
2021/07/03 03:27:17;;;;;;;;;16.75;14.25;;;;;22.72;53.82;100970.91;5052847;28;66384;-58
2021/07/03 03:29:42;;;;;;;;;18.00;17.00;;;;;22.68;53.95;100977.41;5039084;28;65233;-63
2021/07/03 03:32:07;;;;;;;;;14.75;12.50;;;;;22.65;53.81;100982.94;5039886;28;45537;-59
2021/07/03 03:34:33;;;;;;;;;15.25;15.25;;;;;22.62;54.03;100978.69;5039753;28;45432;-60
2021/07/03 03:36:59;;;;;;;;;16.50;15.00;;;;;22.63;53.96;100967.16;5039791;28;45266;-62
2021/07/03 03:39:24;;;;;;;;;19.25;14.50;;;;;22.62;53.92;100968.06;5041588;28;61879;-65
2021/07/03 03:41:49;;;;;;;;;16.00;13.75;;;;;22.59;54.08;100970.97;5035169;28;45550;-57
2021/07/03 03:44:15;;;;;;;;;11.25;10.25;;;;;22.58;54.53;100985.16;5020929;28;62721;-58
2021/07/03 03:46:40;;;;;;;;;18.25;16.25;;;;;22.55;54.17;100977.44;5039670;28;45244;-57
2021/07/03 03:49:06;;;;;;;;;15.25;14.00;;;;;22.55;54.20;100979.25;5052485;28;45358;-58
2021/07/03 03:51:31;;;;;;;;;13.25;12.00;;;;;22.55;54.27;100985.41;5039510;28;59638;-58
2021/07/03 03:53:56;;;;;;;;;14.00;13.75;;;;;22.57;54.06;100982.63;5038568;28;57344;-58
2021/07/03 03:56:22;;;;;;;;;10.00;8.50;;;;;22.60;54.23;100983.25;5045573;28;50968;-58
2021/07/03 03:58:47;;;;;;;;;14.25;14.25;;;;;22.59;54.09;100989.50;5051660;28;46887;-58
2021/07/03 04:01:12;;;;;;;;;14.25;12.75;;;;;22.59;54.25;100991.31;5045508;28;62695;-58
2021/07/03 04:03:38;;;;;;;;;17.75;13.75;;;;;22.61;54.26;100984.94;5045849;28;52074;-58
2021/07/03 04:06:03;;;;;;;;;14.75;14.75;;;;;22.65;54.18;100993.53;5045205;28;59657;-57
2021/07/03 04:08:30;;;;;;;;;18.75;14.75;;;;;22.67;54.37;100997.75;5045448;28;64095;-58
2021/07/03 04:10:55;;;;;;;;;18.00;15.00;;;;;22.68;54.17;100988.84;5041372;28;45328;-58
2021/07/03 04:13:21;;;;;;;;;18.75;15.00;;;;;22.70;54.22;100994.03;5049953;28;45682;-58
2021/07/03 04:15:46;;;;;;;;;14.00;13.50;;;;;22.71;54.25;101001.84;5042032;28;45249;-58
2021/07/03 04:18:11;;;;;;;;;14.50;12.75;;;;;22.73;54.24;100999.09;5049335;28;51640;-58
2021/07/03 04:20:37;;;;;;;;;14.75;13.00;;;;;22.73;54.18;101001.75;5048480;28;66785;-58
2021/07/03 04:23:02;;;;;;;;;17.25;14.25;;;;;22.74;54.03;101004.28;5069141;28;46569;-58
2021/07/03 04:25:28;;;;;;;;;16.25;15.75;;;;;22.76;54.16;100988.25;5041494;28;46624;-58
2021/07/03 04:27:53;;;;;;;;;11.75;11.50;;;;;22.80;54.43;100992.38;5020781;28;60576;-58
2021/07/03 04:30:19;;;;;;;;;17.25;15.00;;;;;22.80;54.08;100986.22;5052372;28;45467;-58
2021/07/03 04:32:44;;;;;;;;;13.75;13.50;;;;;22.79;54.30;101001.28;5038847;28;45424;-57
2021/07/03 04:35:10;;;;;;;;;15.75;14.25;;;;;22.76;54.38;100988.25;5046135;28;45220;-57
2021/07/03 04:37:36;;;;;;;;;17.25;15.00;;;;;22.79;54.65;100990.69;5069106;28;45438;-57
2021/07/03 04:40:02;;;;;;;;;15.50;14.50;;;;;22.82;54.64;100994.94;5048197;28;46120;-57
2021/07/03 04:42:27;;;;;;;;;19.50;16.50;;;;;22.86;54.39;100993.75;5048417;28;46469;-57
2021/07/03 04:44:53;;;;;;;;;15.25;14.25;;;;;22.88;54.96;101002.44;5042141;28;62752;-58
2021/07/03 04:47:18;;;;;;;;;17.25;15.00;;;;;22.85;54.89;101000.03;5048075;28;45483;-58
2021/07/03 04:49:43;;;;;;;;;17.00;15.75;;;;;22.76;55.12;101005.00;5038023;28;63015;-58
2021/07/03 04:52:09;;;;;;;;;16.25;16.25;;;;;22.75;55.56;101011.25;5039884;28;69708;-58
2021/07/03 04:54:34;;;;;;;;;19.25;17.00;;;;;22.72;55.37;101011.50;5041712;28;45337;-58
2021/07/03 04:57:17;;;;;;;;;15.75;14.50;;;;;22.70;55.95;101010.75;5042378;28;45430;-58
2021/07/03 04:59:43;;;;;;;;;16.00;15.25;;;;;22.67;55.86;101010.16;5042098;28;45746;-58
2021/07/03 05:02:10;;;;;;;;;18.25;15.75;;;;;22.68;55.72;101010.03;5055220;28;45284;-57
2021/07/03 05:04:36;;;;;;;;;18.50;16.75;;;;;22.71;55.69;101001.84;5055309;28;45267;-58
2021/07/03 05:07:01;;;;;;;;;15.75;15.25;;;;;22.75;56.16;101013.06;5042110;28;45448;-57
2021/07/03 05:09:27;;;;;;;;;14.00;12.50;;;;;22.76;56.05;101007.66;5041722;28;45162;-57
2021/07/03 05:11:52;;;;;;;;;15.75;14.75;;;;;22.77;55.80;101006.69;5036357;28;47380;-56
2021/07/03 05:14:18;;;;;;;;;19.50;14.25;;;;;22.82;55.92;100994.94;5047632;28;64585;-56
2021/07/03 05:16:43;;;;;;;;;17.25;15.00;;;;;22.83;55.81;100996.66;5049759;28;55365;-56
2021/07/03 05:19:08;;;;;;;;;19.00;15.75;;;;;22.87;56.01;100992.81;5055068;28;45242;-57
2021/07/03 05:21:34;;;;;;;;;17.00;14.75;;;;;22.90;55.96;100993.41;5041465;28;54506;-57
2021/07/03 05:23:59;;;;;;;;;18.25;17.75;;;;;22.90;55.98;100984.63;5041007;28;45197;-58
2021/07/03 05:26:24;;;;;;;;;15.75;15.75;;;;;22.93;56.16;100989.69;5023748;28;50120;-58
2021/07/03 05:28:50;;;;;;;;;23.25;15.75;;;;;22.93;55.99;100992.34;5054675;28;59362;-57
2021/07/03 05:31:15;;;;;;;;;17.00;15.50;;;;;22.98;56.13;100984.88;5053087;28;60926;-58
2021/07/03 05:33:41;;;;;;;;;18.00;16.25;;;;;23.05;55.80;100986.13;5047666;28;56268;-58
2021/07/03 05:36:06;;;;;;;;;19.00;15.00;;;;;23.13;55.74;100988.19;5049357;28;58293;-58
2021/07/03 05:38:40;;;;;;;;;16.75;14.25;;;;;23.14;55.68;100984.56;5027953;28;55013;-59
2021/07/03 05:41:05;;;;;;;;;15.25;15.00;;;;;23.12;55.86;100994.44;5054744;28;46186;-58
2021/07/03 05:43:30;;;;;;;;;18.00;16.75;;;;;23.15;56.28;100989.75;5041129;28;62441;-59
2021/07/03 05:45:56;;;;;;;;;16.50;15.75;;;;;23.23;56.14;100989.19;5041363;28;46122;-58
2021/07/03 05:48:21;;;;;;;;;16.00;15.00;;;;;23.29;55.86;100986.91;5046914;28;58401;-58
2021/07/03 05:50:47;;;;;;;;;15.25;15.25;;;;;23.35;55.54;100982.91;5030096;28;46462;-59
2021/07/03 05:53:12;;;;;;;;;20.00;16.25;;;;;23.40;55.77;100987.84;5040202;28;60876;-56
2021/07/03 05:55:37;;;;;;;;;23.00;19.50;;;;;23.40;55.58;100991.34;5040532;28;54528;-56
2021/07/03 05:58:03;;;;;;;;;18.00;18.00;;;;;23.46;55.24;100992.72;5054106;28;58245;-57
2021/07/03 06:00:28;;;;;;;;;16.75;16.00;;;;;23.48;54.79;100990.78;5040685;28;59403;-58
2021/07/03 06:02:54;;;;;;;;;13.75;13.00;;;;;23.53;54.47;100991.25;5047477;28;45337;-57
2021/07/03 06:05:19;;;;;;;;;17.25;14.25;;;;;23.62;54.75;100986.09;5047458;28;58734;-57
2021/07/03 06:07:44;;;;;;;;;17.50;15.50;;;;;23.74;54.64;100992.28;5053693;28;45534;-69
2021/07/03 06:10:10;;;;;;;;;15.25;15.25;;;;;23.78;54.12;100993.72;5046034;28;46902;-59
2021/07/03 06:12:36;;;;;;;;;14.25;14.00;;;;;23.79;54.31;101000.72;5055408;28;45510;-57
2021/07/03 06:15:03;;;;;;;;;17.00;15.50;;;;;23.85;54.70;100997.59;5041009;28;45246;-57
2021/07/03 06:17:28;;;;;;;;;16.50;13.75;;;;;23.97;53.88;101007.22;5045493;28;45388;-57
2021/07/03 06:19:53;;;;;;;;;17.50;14.00;;;;;24.05;53.45;101005.78;5031079;28;52351;-57
2021/07/03 06:22:19;;;;;;;;;14.25;13.25;;;;;24.14;53.37;101007.69;5040248;28;55890;-57
2021/07/03 06:24:45;;;;;;;;;17.00;15.50;;;;;24.18;52.98;101009.97;5021611;28;62744;-58
2021/07/03 06:27:10;;;;;;;;;13.00;13.00;;;;;24.20;53.08;101009.84;5040248;28;45508;-57
2021/07/03 06:29:36;;;;;;;;;13.50;13.50;;;;;24.28;52.93;101015.41;5050393;28;46599;-58
2021/07/03 06:32:02;;;;;;;;;12.00;11.50;;;;;24.33;52.58;101015.91;5039589;28;45353;-58
2021/07/03 06:34:28;;;;;;;;;14.00;14.00;;;;;24.40;52.16;101006.47;5020772;28;45389;-58
2021/07/03 06:36:53;;;;;;;;;14.25;11.75;;;;;24.52;51.82;101007.28;5039004;28;56944;-57
2021/07/03 06:39:19;;;;;;;;;12.50;11.25;;;;;24.57;51.69;101016.56;5007278;28;64887;-57
2021/07/03 06:41:45;;;;;;;;;16.75;15.00;;;;;24.60;50.54;101015.47;5053516;28;45592;-57
2021/07/03 06:44:10;;;;;;;;;16.75;12.50;;;;;24.49;50.89;101021.66;5052669;28;45306;-57
2021/07/03 06:46:35;;;;;;;;;15.00;15.00;;;;;24.47;50.84;101025.41;5040218;28;64776;-58
2021/07/03 06:49:01;;;;;;;;;12.25;12.00;;;;;24.48;51.61;101016.47;5052704;28;53880;-58
2021/07/03 06:51:26;;;;;;;;;13.50;11.75;;;;;24.62;50.27;101015.31;5040708;28;55200;-58
2021/07/03 06:53:54;;;;;;;;;12.50;11.50;;;;;24.71;50.77;101022.56;5052096;28;52890;-59
2021/07/03 06:56:19;;;;;;;;;15.00;12.25;;;;;24.78;50.26;101032.56;5040640;28;45234;-59
2021/07/03 06:58:44;;;;;;;;;10.00;10.00;;;;;24.80;50.38;101030.59;5040274;28;45238;-59
2021/07/03 07:01:10;;;;;;;;;16.25;13.50;;;;;24.86;50.10;101023.97;5045787;28;68029;-58
2021/07/03 07:03:35;;;;;;;;;14.00;14.00;;;;;24.91;50.84;101029.75;5047465;28;45217;-57
2021/07/03 07:06:01;;;;;;;;;16.00;15.50;;;;;24.96;50.58;101030.19;5039710;28;53741;-56
2021/07/03 07:08:26;;;;;;;;;18.75;14.00;;;;;24.97;49.67;101036.34;5039502;28;46902;-56
2021/07/03 07:10:51;;;;;;;;;16.00;13.25;;;;;24.98;49.40;101036.22;5050207;28;46876;-57
2021/07/03 07:13:17;;;;;;;;;18.75;15.00;;;;;24.95;49.89;101030.31;5047248;28;61980;-56
2021/07/03 07:15:42;;;;;;;;;18.00;15.00;;;;;24.90;50.12;101030.72;5040016;28;64853;-57
2021/07/03 07:18:08;;;;;;;;;18.50;14.75;;;;;24.83;50.17;101030.38;5048232;28;45494;-59
2021/07/03 07:20:33;;;;;;;;;15.25;14.25;;;;;24.80;50.23;101035.09;5039523;28;45412;-59
2021/07/03 07:22:59;;;;;;;;;17.00;15.00;;;;;24.86;50.36;101034.59;5039808;28;45493;-59
2021/07/03 07:25:24;;;;;;;;;18.25;14.50;;;;;24.87;49.83;101041.59;5049950;28;67422;-59
2021/07/03 07:27:49;;;;;;;;;14.00;13.25;;;;;24.91;49.80;101047.50;5037572;28;65262;-62
2021/07/03 07:30:18;;;;;;;;;13.50;13.00;;;;;24.91;49.43;101051.00;5038312;28;54765;-62
2021/07/03 07:32:43;;;;;;;;;18.00;15.75;;;;;24.89;50.35;101060.94;5038408;28;45357;-58
2021/07/03 07:35:09;;;;;;;;;14.75;14.00;;;;;24.92;49.82;101065.16;5051752;28;62331;-58
2021/07/03 07:37:35;;;;;;;;;12.50;11.00;;;;;24.94;49.85;101064.03;5039882;28;47260;-58
2021/07/03 07:40:00;;;;;;;;;16.50;15.00;;;;;24.88;50.11;101061.91;5051832;28;51048;-58
2021/07/03 07:42:25;;;;;;;;;13.25;13.00;;;;;24.93;49.91;101061.50;5049425;28;45418;-58
2021/07/03 07:44:51;;;;;;;;;18.00;14.00;;;;;25.06;49.74;101068.38;5043224;28;45425;-58
2021/07/03 07:47:16;;;;;;;;;15.25;14.75;;;;;25.21;50.05;101058.25;5050700;28;66614;-58
2021/07/03 07:49:42;;;;;;;;;14.25;12.00;;;;;25.38;49.54;101054.19;5045140;28;45320;-58
2021/07/03 07:52:07;;;;;;;;;12.00;12.00;;;;;25.51;49.35;101057.50;5039428;28;45712;-58
2021/07/03 07:54:32;;;;;;;;;15.75;13.75;;;;;25.62;48.66;101067.22;5038279;28;60034;-57
2021/07/03 07:56:59;;;;;;;;;11.75;10.75;;;;;25.56;48.33;101070.41;5038675;28;66690;-57
2021/07/03 07:59:26;;;;;;;;;9.50;9.00;;;;;25.35;47.19;101073.91;5043599;28;45354;-57
2021/07/03 08:01:51;;;;;;;;;12.50;11.50;;;;;25.05;47.81;101079.16;5047538;28;45447;-57
2021/07/03 08:04:17;;;;;;;;;13.50;13.50;;;;;24.85;48.39;101070.13;5038219;28;64508;-57
2021/07/03 08:06:42;;;;;;;;;9.00;8.75;;;;;24.70;49.28;101063.41;5038983;28;46081;-57
2021/07/03 08:09:07;;;;;;;;;12.00;12.00;;;;;24.57;49.21;101066.19;5037992;28;61506;-57
2021/07/03 08:11:33;;;;;;;;;11.75;11.75;;;;;24.50;49.23;101060.56;5048984;28;65133;-57
2021/07/03 08:13:58;;;;;;;;;8.25;6.25;;;;;24.46;50.18;101064.44;5042996;28;45392;-74
2021/07/03 08:16:24;;;;;;;;;12.25;11.75;;;;;24.48;49.99;101048.38;5038699;28;45470;-58
2021/07/03 08:18:49;;;;;;;;;10.75;10.25;;;;;24.46;49.40;101056.47;5067342;28;64194;-58
2021/07/03 08:21:16;;;;;;;;;13.25;13.00;;;;;24.38;50.13;101055.38;5068092;28;52026;-58
2021/07/03 08:23:42;;;;;;;;;17.00;15.50;;;;;24.33;50.39;101068.19;5059766;28;45342;-62
2021/07/03 08:26:07;;;;;;;;;14.75;10.00;;;;;24.26;50.37;101067.81;5020530;28;69341;-59
2021/07/03 08:28:32;;;;;;;;;14.50;12.00;;;;;24.18;50.43;101060.44;5045033;28;45385;-59
2021/07/03 08:30:58;;;;;;;;;14.50;13.50;;;;;24.12;51.26;101060.09;5052745;28;56161;-59
2021/07/03 08:33:23;;;;;;;;;13.00;13.00;;;;;24.04;51.64;101057.19;5041507;28;45532;-59
2021/07/03 08:35:49;;;;;;;;;11.25;11.00;;;;;23.98;51.81;101069.13;5041938;28;45491;-59
2021/07/03 08:38:14;;;;;;;;;10.50;10.25;;;;;23.90;51.92;101061.78;5042156;28;45377;-59
2021/07/03 08:40:39;;;;;;;;;11.75;11.75;;;;;23.82;52.29;101055.34;5054639;28;45470;-59
2021/07/03 08:43:05;;;;;;;;;15.00;12.25;;;;;23.79;52.64;101074.19;5045202;28;64876;-59
2021/07/03 08:45:30;;;;;;;;;18.00;14.50;;;;;23.75;52.63;101072.72;5041215;28;56028;-60
2021/07/03 08:47:56;;;;;;;;;14.25;12.50;;;;;23.77;52.50;101069.00;5043878;28;45355;-60
2021/07/03 08:50:21;;;;;;;;;14.00;11.50;;;;;23.79;52.47;101072.38;5051968;28;60484;-58
2021/07/03 08:52:47;;;;;;;;;12.75;12.75;;;;;23.82;52.42;101064.16;5049921;28;45468;-59
2021/07/03 08:55:16;;;;;;;;;14.00;13.75;;;;;23.84;52.44;101064.06;5051209;28;45962;-59
2021/07/03 08:57:45;;;;;;;;;14.00;10.00;;;;;23.82;52.36;101072.13;5045073;28;45326;-60
2021/07/03 09:00:11;;;;;;;;;14.00;11.75;;;;;23.83;52.78;101080.97;5042224;28;45531;-59
2021/07/03 09:02:38;;;;;;;;;13.00;12.00;;;;;23.85;53.70;101079.88;5040765;28;45308;-59
2021/07/03 09:05:25;;;;;;;;;17.50;15.00;;;;;23.89;53.88;101091.09;5024221;28;45684;-58
2021/07/03 09:07:51;;;;;;;;;17.25;15.00;;;;;23.96;53.93;101076.38;5062069;28;45169;-58
2021/07/03 09:10:22;;;;;;;;;17.00;13.25;;;;;23.93;54.85;101077.47;5047536;28;45471;-49
2021/07/03 09:12:50;;;;;;;;;14.25;13.00;;;;;23.95;55.02;101078.19;5055171;28;45256;-52
2021/07/03 09:15:17;;;;;;;;;15.50;14.25;;;;;23.96;54.73;101074.56;5037559;28;45386;-52
2021/07/03 09:17:53;;;;;;;;;16.00;13.50;;;;;23.97;54.70;101078.91;5039215;28;45328;-52
2021/07/03 09:20:26;;;;;;;;;18.75;15.25;;;;;24.02;55.04;101075.88;5048990;28;45505;-48
2021/07/03 09:22:57;;;;;;;;;17.25;13.25;;;;;24.09;54.49;101077.09;5041254;28;45420;-47
2021/07/03 09:25:23;;;;;;;;;27.25;19.00;;;;;24.15;54.77;101081.06;5034029;28;47425;-51
2021/07/03 09:27:49;;;;;;;;;16.50;16.50;;;;;24.15;55.19;101078.41;5051258;28;45658;-49
2021/07/03 09:30:19;;;;;;;;;15.75;15.50;;;;;24.19;54.66;101079.88;5050284;28;62084;-63
2021/07/03 09:32:52;;;;;;;;;19.00;16.25;;;;;24.16;54.27;101072.16;5053260;28;45481;-61
2021/07/03 09:35:17;;;;;;;;;20.25;18.50;;;;;24.12;54.52;101078.66;5023654;28;45436;-62
2021/07/03 09:37:43;;;;;;;;;16.25;15.50;;;;;24.07;54.38;101094.13;5049171;28;45391;-67
2021/07/03 09:40:09;;;;;;;;;17.75;14.50;;;;;23.97;54.90;101086.88;5032312;28;45421;-65
2021/07/03 09:42:38;;;;;;;;;16.75;16.75;;;;;24.03;54.92;101088.22;5024870;28;45429;-65
2021/07/03 09:45:04;;;;;;;;;12.00;12.00;;;;;24.03;54.67;101092.66;5051058;28;45454;-66
2021/07/03 09:47:30;;;;;;;;;14.50;14.50;;;;;24.05;54.52;101104.03;5048794;28;45368;-66
2021/07/03 09:50:11;;;;;;;;;17.50;16.50;;;;;24.05;54.86;101090.75;5036529;28;45864;-67
2021/07/03 09:52:37;;;;;;;;;17.00;15.00;;;;;24.15;54.62;101092.53;5051716;28;45293;-67
2021/07/03 09:55:09;;;;;;;;;17.50;15.50;;;;;24.12;54.54;101099.91;5048514;28;45275;-65
2021/07/03 09:57:38;;;;;;;;;19.00;15.50;;;;;24.12;54.25;101100.75;5033311;28;45774;-62
2021/07/03 10:00:10;;;;;;;;;15.00;14.00;;;;;24.19;54.41;101096.63;5051007;28;45317;-63
2021/07/03 10:02:36;;;;;;;;;16.00;15.50;;;;;24.30;54.23;101093.19;5035428;28;45328;-62
2021/07/03 10:05:02;;;;;;;;;19.00;16.00;;;;;24.36;53.87;101099.81;5050694;28;46207;-62
2021/07/03 10:07:40;;;;;;;;;22.00;15.25;;;;;24.39;52.26;101103.06;5057511;28;45621;-61
2021/07/03 10:10:10;;;;;;;;;16.50;15.25;;;;;24.28;51.33;101108.38;5051203;28;45312;-63
2021/07/03 10:12:38;;;;;;;;;14.50;13.25;;;;;24.15;52.17;101104.97;5040258;28;45411;-61
2021/07/03 10:15:04;;;;;;;;;13.50;12.25;;;;;24.16;52.04;101101.34;5060583;28;46842;-51
2021/07/03 10:17:31;;;;;;;;;15.75;13.25;;;;;24.28;52.08;101097.75;5048557;28;45351;-49
2021/07/03 10:19:57;;;;;;;;;14.75;13.00;;;;;24.49;51.06;101096.06;5049348;28;45327;-50
2021/07/03 10:22:24;;;;;;;;;16.00;14.00;;;;;24.68;50.72;101094.59;5051870;28;45607;-48
2021/07/03 10:24:52;;;;;;;;;11.00;10.25;;;;;24.85;50.30;101086.94;5047396;28;45422;-48
2021/07/03 10:27:18;;;;;;;;;16.00;15.75;;;;;25.04;50.63;101096.09;5053981;28;45276;-47
2021/07/03 10:29:44;;;;;;;;;14.25;13.25;;;;;25.21;48.61;101097.31;5041000;28;45501;-46
2021/07/03 10:32:18;;;;;;;;;11.25;10.25;;;;;25.23;48.56;101096.25;5051088;28;45341;-49
2021/07/03 10:34:44;;;;;;;;;11.00;10.50;;;;;25.22;49.41;101096.34;5041247;28;45626;-48
2021/07/03 10:37:09;;;;;;;;;14.00;13.75;;;;;25.34;47.84;101090.00;5053461;28;45376;-48
2021/07/03 10:39:34;;;;;;;;;13.00;12.00;;;;;25.44;48.22;101090.94;5043041;28;54472;-50
2021/07/03 10:42:00;;;;;;;;;11.00;10.50;;;;;25.52;48.05;101090.28;5053253;28;45238;-47
2021/07/03 10:44:37;;;;;;;;;11.75;10.25;;;;;25.71;46.81;101091.28;5051627;28;51961;-50
2021/07/03 10:47:09;;;;;;;;;12.50;10.75;;;;;25.92;47.17;101098.41;5048253;28;45554;-47
2021/07/03 10:49:37;;;;;;;;;9.50;9.50;;;;;25.91;46.33;101096.72;5044039;28;45226;-51
2021/07/03 10:52:10;;;;;;;;;14.50;11.25;;;;;25.98;45.85;101092.53;5034666;28;45353;-57
2021/07/03 10:54:36;;;;;;;;;11.25;10.25;;;;;26.11;46.38;101092.31;5048180;28;46486;-47
2021/07/03 10:57:05;;;;;;;;;11.25;8.50;;;;;26.17;45.21;101084.63;5046163;28;65886;-60
2021/07/03 10:59:38;;;;;;;;;17.50;14.50;;;;;26.13;46.09;101088.53;5046201;28;45404;-47
2021/07/03 11:02:18;;;;;;;;;9.50;9.50;;;;;26.26;45.26;101083.84;5050184;28;45420;-66
2021/07/03 11:04:54;;;;;;;;;11.00;10.00;;;;;26.38;45.43;101082.78;5033275;28;63759;-62